createdAt,value
2023-04-21T00:01:55.410Z,6.50
2023-04-21T00:04:24.035Z,5.90
2023-04-21T00:06:53.345Z,6.30
2023-04-21T00:09:22.508Z,5.60
2023-04-21T00:11:50.862Z,4.70
2023-04-21T00:14:19.238Z,5.50
2023-04-21T00:16:47.477Z,4.80
2023-04-21T00:19:15.809Z,5.30
2023-04-21T00:21:43.906Z,5.50
2023-04-21T00:24:12.368Z,5.40
2023-04-21T00:26:40.595Z,5.70
2023-04-21T00:29:08.934Z,5.90
2023-04-21T00:31:37.164Z,5.40
2023-04-21T00:34:06.456Z,5.20
2023-04-21T00:36:34.651Z,5.60
2023-04-21T00:39:02.904Z,4.80
2023-04-21T00:41:31.139Z,5.10
2023-04-21T00:44:07.133Z,5.30
2023-04-21T00:46:35.910Z,5.10
2023-04-21T00:49:05.738Z,5.10
2023-04-21T00:51:34.783Z,5.50
2023-04-21T00:54:04.485Z,5.50
2023-04-21T00:56:34.058Z,4.80
2023-04-21T00:59:03.428Z,4.80
2023-04-21T01:01:32.677Z,4.40
2023-04-21T01:04:01.786Z,4.90
2023-04-21T01:06:32.413Z,4.60
2023-04-21T01:09:00.995Z,5.00
2023-04-21T01:11:29.555Z,5.00
2023-04-21T01:13:57.962Z,5.30
2023-04-21T01:16:26.989Z,5.20
2023-04-21T01:18:55.635Z,4.80
2023-04-21T01:21:24.018Z,4.50
2023-04-21T01:23:52.229Z,4.50
2023-04-21T01:26:22.103Z,4.80
2023-04-21T01:28:50.600Z,4.40
2023-04-21T01:31:18.974Z,3.80
2023-04-21T01:33:47.344Z,4.90
2023-04-21T01:36:17.845Z,4.40
2023-04-21T01:38:46.277Z,4.70
2023-04-21T01:41:14.722Z,4.60
2023-04-21T01:43:42.922Z,5.70
2023-04-21T01:46:11.554Z,5.30
2023-04-21T01:48:39.875Z,6.20
2023-04-21T01:51:08.443Z,6.80
2023-04-21T01:53:36.619Z,12.10
2023-04-21T01:56:05.219Z,14.20
2023-04-21T01:58:33.722Z,14.10
2023-04-21T02:01:02.173Z,12.80
2023-04-21T02:03:30.639Z,12.10
2023-04-21T02:05:59.366Z,9.90
2023-04-21T02:08:27.607Z,11.00
2023-04-21T02:10:55.743Z,9.90
2023-04-21T02:13:24.557Z,7.20
2023-04-21T02:16:02.460Z,8.00
2023-04-21T02:18:40.220Z,6.80
2023-04-21T02:21:08.774Z,5.10
2023-04-21T02:23:37.300Z,11.30
2023-04-21T02:26:06.351Z,10.70
2023-04-21T02:28:36.160Z,13.30
2023-04-21T02:31:04.490Z,18.80
2023-04-21T02:33:36.157Z,29.20
2023-04-21T02:36:05.006Z,31.90
2023-04-21T02:38:33.370Z,31.30
2023-04-21T02:41:01.627Z,29.30
2023-04-21T02:43:29.879Z,25.60
2023-04-21T02:45:57.942Z,12.80
2023-04-21T02:48:26.947Z,12.80
2023-04-21T02:50:55.278Z,6.80
2023-04-21T02:53:23.488Z,6.20
2023-04-21T02:55:52.500Z,5.60
2023-04-21T02:58:21.103Z,7.10
2023-04-21T03:00:49.430Z,19.20
2023-04-21T03:03:17.950Z,29.90
2023-04-21T03:05:46.277Z,40.90
2023-04-21T03:08:14.679Z,28.20
2023-04-21T03:10:42.778Z,24.50
2023-04-21T03:13:11.081Z,17.80
2023-04-21T03:15:39.344Z,13.40
2023-04-21T03:18:07.474Z,11.40
2023-04-21T03:20:35.759Z,10.30
2023-04-21T03:23:04.259Z,11.00
2023-04-21T03:25:32.946Z,8.00
2023-04-21T03:28:01.320Z,7.70
2023-04-21T03:30:29.872Z,7.40
2023-04-21T03:32:58.976Z,8.80
2023-04-21T03:35:27.636Z,9.20
2023-04-21T03:37:56.037Z,9.90
2023-04-21T03:40:24.408Z,9.90
2023-04-21T03:42:52.554Z,10.70
2023-04-21T03:45:22.812Z,10.30
2023-04-21T03:47:55.274Z,11.00
2023-04-21T03:50:24.113Z,9.60
2023-04-21T03:52:52.416Z,10.40
2023-04-21T03:55:20.641Z,8.00
2023-04-21T03:57:49.362Z,8.70
2023-04-21T04:00:17.663Z,6.70
2023-04-21T04:02:46.876Z,7.50
2023-04-21T04:05:16.184Z,7.90
2023-04-21T04:07:44.855Z,7.80
2023-04-21T04:10:13.126Z,7.20
2023-04-21T04:12:41.907Z,7.10
2023-04-21T04:15:10.186Z,6.90
2023-04-21T04:17:38.808Z,6.50
2023-04-21T04:20:08.663Z,7.10
2023-04-21T04:22:37.269Z,7.80
2023-04-21T04:25:05.956Z,7.40
2023-04-21T04:27:34.626Z,7.80
2023-04-21T04:30:03.370Z,7.00
2023-04-21T04:32:33.560Z,6.30
2023-04-21T04:35:02.660Z,5.20
2023-04-21T04:37:31.821Z,5.60
2023-04-21T04:40:00.205Z,5.40
2023-04-21T04:42:29.127Z,4.80
2023-04-21T04:44:57.361Z,5.30
2023-04-21T04:47:25.545Z,5.10
2023-04-21T04:49:54.145Z,4.80
2023-04-21T04:52:22.727Z,5.40
2023-04-21T04:54:50.775Z,5.00
2023-04-21T04:57:19.389Z,6.10
2023-04-21T04:59:47.490Z,5.70
2023-04-21T05:02:16.541Z,5.90
2023-04-21T05:04:45.228Z,5.90
2023-04-21T05:07:13.547Z,6.20
2023-04-21T05:09:41.792Z,5.60
2023-04-21T05:12:10.349Z,6.30
2023-04-21T05:14:38.536Z,6.10
2023-04-21T05:17:06.664Z,5.50
2023-04-21T05:19:38.122Z,6.60
2023-04-21T05:22:09.159Z,5.50
2023-04-21T05:24:37.871Z,4.80
2023-04-21T05:27:05.986Z,5.20
2023-04-21T05:29:34.433Z,6.10
2023-04-21T05:32:02.894Z,5.80
2023-04-21T05:34:31.179Z,5.20
2023-04-21T05:36:59.261Z,5.50
2023-04-21T05:39:28.384Z,6.10
2023-04-21T05:41:56.513Z,6.00
2023-04-21T05:44:25.513Z,5.00
2023-04-21T05:46:53.900Z,4.90
2023-04-21T05:49:22.426Z,4.60
2023-04-21T05:51:50.622Z,5.00
2023-04-21T05:54:19.718Z,4.60
2023-04-21T05:56:48.555Z,5.00
2023-04-21T05:59:16.817Z,4.50
2023-04-21T06:01:45.203Z,5.20
2023-04-21T06:04:13.879Z,4.20
2023-04-21T06:06:42.698Z,4.80
2023-04-21T06:09:11.085Z,4.80
2023-04-21T06:11:39.338Z,4.50
2023-04-21T06:14:07.538Z,4.90
2023-04-21T06:16:36.398Z,3.90
2023-04-21T06:19:04.509Z,4.90
2023-04-21T06:21:33.298Z,4.60
2023-04-21T06:24:01.673Z,4.00
2023-04-21T06:26:30.397Z,5.10
2023-04-21T06:28:58.566Z,4.80
2023-04-21T06:31:27.302Z,4.00
2023-04-21T06:33:55.341Z,3.90
2023-04-21T06:36:23.497Z,3.70
2023-04-21T06:38:51.989Z,5.50
2023-04-21T06:41:20.049Z,3.50
2023-04-21T06:43:48.297Z,4.60
2023-04-21T06:46:16.669Z,4.40
2023-04-21T06:48:44.893Z,4.00
2023-04-21T06:51:13.087Z,4.00
2023-04-21T06:53:41.333Z,3.90
2023-04-21T06:56:09.460Z,3.30
2023-04-21T06:58:37.554Z,4.00
2023-04-21T07:01:06.254Z,3.60
2023-04-21T07:03:34.831Z,3.50
2023-04-21T07:06:03.249Z,4.10
2023-04-21T07:08:31.567Z,3.00
2023-04-21T07:10:59.979Z,4.70
2023-04-21T07:13:28.214Z,3.60
2023-04-21T07:15:56.563Z,3.70
2023-04-21T07:18:24.689Z,3.60
2023-04-21T07:20:52.986Z,2.60
2023-04-21T07:23:21.274Z,3.40
2023-04-21T07:28:28.902Z,3.90
2023-04-21T07:30:57.113Z,2.90
2023-04-21T07:33:25.409Z,3.40
2023-04-21T07:35:53.750Z,3.00
2023-04-21T07:38:22.042Z,4.10
2023-04-21T07:40:50.236Z,4.10
2023-04-21T07:43:20.090Z,3.90
2023-04-21T07:45:48.397Z,4.10
2023-04-21T07:48:16.970Z,3.90
2023-04-21T07:50:45.383Z,4.10
2023-04-21T07:53:13.635Z,4.20
2023-04-21T07:55:41.739Z,4.90
2023-04-21T07:58:10.662Z,5.30
2023-04-21T08:00:39.074Z,4.20
2023-04-21T08:03:07.395Z,3.80
2023-04-21T08:05:40.184Z,3.90
2023-04-21T08:08:09.485Z,4.90
2023-04-21T08:10:37.807Z,3.50
2023-04-21T08:13:06.571Z,5.50
2023-04-21T08:15:35.137Z,4.00
2023-04-21T08:18:03.418Z,3.40
2023-04-21T08:20:31.725Z,9.90
2023-04-21T08:23:00.113Z,5.60
2023-04-21T08:25:28.370Z,4.80
2023-04-21T08:27:56.716Z,3.30
2023-04-21T08:30:27.014Z,3.50
2023-04-21T08:32:55.557Z,2.90
2023-04-21T08:35:24.434Z,3.00
2023-04-21T08:37:53.574Z,3.30
2023-04-21T08:40:24.135Z,3.30
2023-04-21T08:42:52.299Z,3.30
2023-04-21T08:45:20.769Z,3.30
2023-04-21T08:47:49.426Z,8.20
2023-04-21T08:50:17.606Z,3.70
2023-04-21T08:52:45.910Z,4.40
2023-04-21T08:55:14.236Z,3.00
2023-04-21T08:57:42.475Z,3.50
2023-04-21T09:00:11.246Z,3.80
2023-04-21T09:03:01.460Z,3.50
2023-04-21T09:05:32.759Z,3.40
2023-04-21T09:08:14.823Z,3.00
2023-04-21T09:10:46.883Z,3.10
2023-04-21T09:13:15.405Z,3.10
2023-04-21T09:15:47.929Z,2.90
2023-04-21T09:18:21.354Z,2.90
2023-04-21T09:20:51.639Z,3.60
2023-04-21T09:23:21.268Z,3.20
2023-04-21T09:25:49.467Z,2.80
2023-04-21T09:28:17.666Z,3.00
2023-04-21T09:30:45.842Z,2.60
2023-04-21T09:33:28.901Z,2.80
2023-04-21T09:36:01.004Z,3.60
2023-04-21T09:38:29.591Z,3.60
2023-04-21T09:40:59.985Z,2.30
2023-04-21T09:43:28.199Z,2.70
2023-04-21T09:45:56.343Z,2.80
2023-04-21T09:48:27.512Z,4.10
2023-04-21T09:53:27.453Z,3.00
2023-04-21T09:55:56.997Z,2.40
2023-04-21T09:58:25.651Z,3.30
2023-04-21T10:00:53.948Z,3.10
2023-04-21T10:03:22.402Z,2.80
2023-04-21T10:05:50.815Z,3.00
2023-04-21T10:08:18.972Z,2.90
2023-04-21T10:10:47.916Z,2.30
2023-04-21T10:13:18.750Z,2.50
2023-04-21T10:15:46.933Z,2.80
2023-04-21T10:18:19.977Z,2.50
2023-04-21T10:21:11.020Z,2.70
2023-04-21T10:23:43.576Z,2.40
2023-04-21T10:26:19.025Z,2.60
2023-04-21T10:28:56.757Z,3.50
2023-04-21T10:31:34.729Z,3.30
2023-04-21T10:34:09.198Z,2.70
2023-04-21T10:36:46.986Z,2.60
2023-04-21T10:39:36.618Z,2.30
2023-04-21T10:42:13.898Z,2.50
2023-04-21T10:44:53.191Z,2.60
2023-04-21T10:47:28.397Z,2.50
2023-04-21T10:49:58.176Z,2.70
2023-04-21T10:52:33.679Z,2.90
2023-04-21T10:55:01.850Z,2.90
2023-04-21T10:57:34.595Z,3.90
2023-04-21T11:00:06.438Z,2.70
2023-04-21T11:02:39.486Z,3.00
2023-04-21T11:05:10.287Z,2.30
2023-04-21T11:07:39.130Z,2.90
2023-04-21T11:10:08.108Z,3.10
2023-04-21T11:12:39.562Z,2.70
2023-04-21T11:15:09.347Z,2.30
2023-04-21T11:17:43.625Z,2.40
2023-04-21T11:20:12.171Z,2.30
2023-04-21T11:22:40.458Z,2.20
2023-04-21T11:25:17.309Z,2.80
2023-04-21T11:27:54.136Z,3.30
2023-04-21T11:30:32.019Z,2.30
2023-04-21T11:33:00.412Z,2.70
2023-04-21T11:35:28.554Z,2.10
2023-04-21T11:37:57.160Z,2.30
2023-04-21T11:40:25.266Z,2.90
2023-04-21T11:42:53.872Z,2.20
2023-04-21T11:45:22.826Z,3.20
2023-04-21T11:47:51.301Z,2.40
2023-04-21T11:50:32.064Z,2.70
2023-04-21T11:53:02.626Z,3.50
2023-04-21T11:55:30.799Z,2.90
2023-04-21T11:57:58.994Z,2.80
2023-04-21T12:00:30.892Z,3.00
2023-04-21T12:02:59.172Z,3.10
2023-04-21T12:05:34.883Z,2.60
2023-04-21T12:08:05.275Z,2.80
2023-04-21T12:10:34.095Z,3.00
2023-04-21T12:13:02.245Z,2.90
2023-04-21T12:15:30.593Z,2.70
2023-04-21T12:17:58.898Z,2.50
2023-04-21T12:20:29.316Z,2.40
2023-04-21T12:22:57.651Z,3.10
2023-04-21T12:25:26.206Z,3.10
2023-04-21T12:27:58.772Z,3.10
2023-04-21T12:30:27.077Z,4.60
2023-04-21T12:32:55.856Z,3.20
2023-04-21T12:35:24.246Z,6.10
2023-04-21T12:37:52.657Z,9.70
2023-04-21T12:40:21.224Z,3.10
2023-04-21T12:42:49.604Z,3.80
2023-04-21T12:45:17.971Z,3.00
2023-04-21T12:47:47.073Z,3.30
2023-04-21T12:50:16.272Z,2.50
2023-04-21T12:52:44.457Z,2.60
2023-04-21T12:55:13.493Z,3.50
2023-04-21T12:57:41.989Z,2.70
2023-04-21T13:00:12.374Z,4.00
2023-04-21T13:02:41.864Z,3.20
2023-04-21T13:05:12.134Z,2.60
2023-04-21T13:07:41.485Z,2.40
2023-04-21T13:10:10.190Z,2.40
2023-04-21T13:12:41.621Z,3.50
2023-04-21T13:15:10.858Z,3.60
2023-04-21T13:17:39.687Z,3.80
2023-04-21T13:20:08.426Z,3.50
2023-04-21T13:22:36.797Z,2.80
2023-04-21T13:25:05.512Z,3.40
2023-04-21T13:27:35.098Z,3.00
2023-04-21T13:30:03.638Z,2.90
2023-04-21T13:32:32.484Z,4.00
2023-04-21T13:35:00.867Z,3.40
2023-04-21T13:37:28.989Z,3.40
2023-04-21T13:39:57.239Z,3.10
2023-04-21T13:42:25.701Z,2.80
2023-04-21T13:44:53.918Z,3.00
2023-04-21T13:47:22.109Z,3.20
2023-04-21T13:49:51.695Z,3.00
2023-04-21T13:52:19.845Z,4.00
2023-04-21T13:54:48.156Z,5.00
2023-04-21T13:57:16.482Z,3.70
2023-04-21T13:59:44.588Z,3.00
2023-04-21T14:02:13.060Z,3.00
2023-04-21T14:04:41.943Z,3.50
2023-04-21T14:07:10.579Z,3.60
2023-04-21T14:09:38.851Z,3.00
2023-04-21T14:12:07.365Z,3.50
2023-04-21T14:14:38.797Z,3.30
2023-04-21T14:17:07.854Z,3.30
2023-04-21T14:19:36.759Z,3.00
2023-04-21T14:22:05.132Z,3.30
2023-04-21T14:24:34.889Z,3.60
2023-04-21T14:27:03.127Z,3.30
2023-04-21T14:29:32.773Z,3.10
2023-04-21T14:32:27.556Z,3.40
2023-04-21T14:34:58.821Z,3.10
2023-04-21T14:37:27.498Z,3.30
2023-04-21T14:39:55.600Z,34.80
2023-04-21T14:42:23.899Z,3.90
2023-04-21T14:44:52.405Z,3.60
2023-04-21T14:47:21.632Z,3.30
2023-04-21T14:49:55.219Z,4.60
2023-04-21T14:52:27.273Z,5.30
2023-04-21T14:54:55.788Z,4.00
2023-04-21T14:57:24.242Z,3.60
2023-04-21T14:59:53.084Z,3.00
2023-04-21T15:02:22.346Z,5.70
2023-04-21T15:04:50.948Z,5.50
2023-04-21T15:07:23.851Z,4.10
2023-04-21T15:09:55.682Z,4.10
2023-04-21T15:12:24.085Z,3.60
2023-04-21T15:14:52.412Z,4.00
2023-04-21T15:17:20.816Z,4.10
2023-04-21T15:19:49.123Z,3.40
2023-04-21T15:22:17.349Z,6.90
2023-04-21T15:24:46.232Z,3.90
2023-04-21T15:27:14.374Z,4.30
2023-04-21T15:29:42.656Z,3.50
2023-04-21T15:32:11.125Z,4.10
2023-04-21T15:34:39.689Z,4.00
2023-04-21T15:37:08.015Z,3.90
2023-04-21T15:39:36.831Z,4.50
2023-04-21T15:42:05.512Z,10.20
2023-04-21T15:44:34.415Z,8.40
2023-04-21T15:47:03.240Z,7.50
2023-04-21T15:49:31.636Z,5.90
2023-04-21T15:52:00.113Z,5.50
2023-04-21T15:54:28.652Z,5.90
2023-04-21T15:56:57.725Z,5.90
2023-04-21T15:59:26.444Z,5.90
2023-04-21T16:01:57.073Z,5.20
2023-04-21T16:04:25.624Z,4.60
2023-04-21T16:06:54.058Z,4.60
2023-04-21T16:09:22.673Z,5.20
2023-04-21T16:11:51.548Z,20.10
2023-04-21T16:14:20.142Z,13.80
2023-04-21T16:16:48.650Z,16.30
2023-04-21T16:19:17.710Z,8.40
2023-04-21T16:21:46.061Z,6.80
2023-04-21T16:24:15.132Z,6.50
2023-04-21T16:26:43.450Z,5.80
2023-04-21T16:29:11.877Z,5.20
2023-04-21T16:31:40.581Z,5.00
2023-04-21T16:34:08.845Z,5.10
2023-04-21T16:36:37.154Z,4.90
2023-04-21T16:39:06.078Z,4.20
2023-04-21T16:41:34.929Z,4.20
2023-04-21T16:44:03.136Z,5.30
2023-04-21T16:46:31.948Z,6.90
2023-04-21T16:49:00.366Z,8.80
2023-04-21T16:51:28.787Z,10.20
2023-04-21T16:53:57.217Z,13.20
2023-04-21T16:56:25.643Z,17.50
2023-04-21T16:58:53.833Z,13.50
2023-04-21T17:01:22.334Z,8.50
2023-04-21T17:03:51.128Z,5.60
2023-04-21T17:06:21.344Z,8.00
2023-04-21T17:08:49.919Z,8.90
2023-04-21T17:11:18.158Z,7.70
2023-04-21T17:13:46.680Z,7.10
2023-04-21T17:16:15.142Z,6.30
2023-04-21T17:18:43.526Z,7.60
2023-04-21T17:21:13.629Z,7.60
2023-04-21T17:23:42.061Z,15.40
2023-04-21T17:26:12.410Z,8.00
2023-04-21T17:28:41.512Z,8.60
2023-04-21T17:31:15.631Z,9.50
2023-04-21T17:33:45.243Z,9.80
2023-04-21T17:36:13.855Z,7.40
2023-04-21T17:38:43.179Z,6.80
2023-04-21T17:41:12.626Z,7.00
2023-04-21T17:43:40.920Z,7.10
2023-04-21T17:46:09.175Z,6.60
2023-04-21T17:48:38.977Z,8.50
2023-04-21T17:51:07.226Z,7.30
2023-04-21T17:53:36.240Z,17.60
2023-04-21T17:56:05.726Z,41.00
2023-04-21T17:58:35.390Z,28.80
2023-04-21T18:01:04.820Z,38.20
2023-04-21T18:03:36.945Z,28.90
2023-04-21T18:06:05.535Z,25.70
2023-04-21T18:08:34.288Z,24.20
2023-04-21T18:11:02.476Z,24.60
2023-04-21T18:13:31.592Z,22.60
2023-04-21T18:15:59.888Z,18.10
2023-04-21T18:18:28.517Z,12.80
2023-04-21T18:20:56.723Z,15.50
2023-04-21T18:23:26.850Z,13.10
2023-04-21T18:25:55.188Z,10.80
2023-04-21T18:28:23.497Z,10.30
2023-04-21T18:30:53.841Z,8.70
2023-04-21T18:33:22.041Z,9.30
2023-04-21T18:35:52.824Z,8.50
2023-04-21T18:38:21.002Z,10.10
2023-04-21T18:40:49.156Z,10.00
2023-04-21T18:43:17.497Z,9.90
2023-04-21T18:45:46.684Z,9.50
2023-04-21T18:48:15.011Z,8.40
2023-04-21T18:50:44.338Z,8.20
2023-04-21T18:53:12.407Z,8.10
2023-04-21T18:55:40.756Z,8.80
2023-04-21T18:58:09.988Z,8.60
2023-04-21T19:00:39.322Z,8.30
2023-04-21T19:03:07.836Z,8.40
2023-04-21T19:05:37.078Z,8.20
2023-04-21T19:08:06.009Z,7.00
2023-04-21T19:10:37.539Z,8.10
2023-04-21T19:13:05.944Z,8.20
2023-04-21T19:15:35.087Z,7.90
2023-04-21T19:18:03.797Z,7.30
2023-04-21T19:20:33.617Z,6.70
2023-04-21T19:23:01.881Z,6.80
2023-04-21T19:25:30.898Z,7.10
2023-04-21T19:27:59.198Z,7.10
2023-04-21T19:30:27.682Z,7.20
2023-04-21T19:32:55.925Z,7.30
2023-04-21T19:35:24.309Z,6.20
2023-04-21T19:37:52.773Z,7.00
2023-04-21T19:40:21.024Z,7.00
2023-04-21T19:44:59.033Z,6.90
2023-04-21T19:47:27.620Z,7.70
2023-04-21T19:49:55.841Z,7.00
2023-04-21T19:52:25.084Z,6.70
2023-04-21T19:54:53.562Z,6.60
2023-04-21T19:57:21.720Z,7.70
2023-04-21T19:59:49.966Z,7.70
2023-04-21T20:02:19.714Z,7.70
2023-04-21T20:04:49.244Z,7.90
2023-04-21T20:07:17.746Z,7.10
2023-04-21T20:09:46.054Z,7.00
2023-04-21T20:12:14.861Z,6.60
2023-04-21T20:14:43.130Z,6.40
2023-04-21T20:17:11.535Z,6.40
2023-04-21T20:19:40.802Z,7.00
2023-04-21T20:22:09.163Z,6.40
2023-04-21T20:24:37.494Z,6.70
2023-04-21T20:27:08.634Z,8.20
2023-04-21T20:29:37.556Z,8.20
2023-04-21T20:32:06.070Z,13.60
2023-04-21T20:34:34.468Z,10.50
2023-04-21T20:37:04.091Z,10.10
2023-04-21T20:39:32.483Z,8.00
2023-04-21T20:42:11.944Z,6.60
2023-04-21T20:44:42.521Z,5.60
2023-04-21T20:47:11.621Z,5.60
2023-04-21T20:49:40.496Z,5.30
2023-04-21T20:52:09.220Z,6.00
2023-04-21T20:54:38.245Z,6.00
2023-04-21T20:57:07.641Z,6.30
2023-04-21T20:59:36.674Z,7.10
2023-04-21T21:02:05.331Z,6.20
2023-04-21T21:04:33.888Z,6.10
2023-04-21T21:07:02.355Z,6.00
2023-04-21T21:09:31.453Z,6.90
2023-04-21T21:11:59.833Z,6.10
2023-04-21T21:14:28.112Z,5.90
2023-04-21T21:16:56.492Z,5.70
2023-04-21T21:19:24.796Z,7.00
2023-04-21T21:21:53.144Z,7.40
2023-04-21T21:24:21.369Z,8.30
2023-04-21T21:26:49.613Z,8.30
2023-04-21T21:29:18.291Z,7.00
2023-04-21T21:31:46.633Z,7.20
2023-04-21T21:34:14.924Z,6.40
2023-04-21T21:36:43.101Z,7.10
2023-04-21T21:39:11.615Z,6.30
2023-04-21T21:41:39.935Z,6.90
2023-04-21T21:44:08.226Z,7.60
2023-04-21T21:46:36.544Z,7.10
2023-04-21T21:49:04.944Z,6.60
2023-04-21T21:51:33.148Z,6.80
2023-04-21T21:54:01.254Z,6.80
2023-04-21T21:56:29.622Z,6.00
2023-04-21T21:58:57.917Z,6.50
2023-04-21T22:01:26.131Z,6.70
2023-04-21T22:03:54.457Z,6.10
2023-04-21T22:06:24.147Z,6.30
2023-04-21T22:08:53.029Z,6.00
2023-04-21T22:11:21.330Z,5.80
2023-04-21T22:13:50.641Z,5.80
2023-04-21T22:16:20.125Z,7.10
2023-04-21T22:18:48.536Z,6.90
2023-04-21T22:21:16.724Z,6.10
2023-04-21T22:23:45.150Z,5.80
2023-04-21T22:26:13.230Z,5.30
2023-04-21T22:28:41.856Z,6.00
2023-04-21T22:31:10.705Z,6.10
2023-04-21T22:33:39.113Z,6.40
2023-04-21T22:36:09.879Z,5.90
2023-04-21T22:38:39.273Z,5.80
2023-04-21T22:41:08.183Z,5.20
2023-04-21T22:43:36.727Z,6.30
2023-04-21T22:46:05.002Z,5.90
2023-04-21T22:48:33.804Z,6.20
2023-04-21T22:51:03.026Z,6.30
2023-04-21T22:53:31.618Z,7.90
2023-04-21T22:55:59.950Z,9.90
2023-04-21T22:58:28.206Z,12.00
2023-04-21T23:00:56.508Z,18.10
2023-04-21T23:03:24.705Z,24.40
2023-04-21T23:05:53.043Z,12.50
2023-04-21T23:08:21.186Z,13.40
2023-04-21T23:10:49.563Z,10.10
2023-04-21T23:13:17.693Z,9.20
2023-04-21T23:15:45.767Z,11.80
2023-04-21T23:18:13.907Z,8.40
2023-04-21T23:20:41.979Z,9.90
2023-04-21T23:23:10.148Z,7.90
2023-04-21T23:25:38.353Z,7.50
2023-04-21T23:28:06.495Z,7.30
2023-04-21T23:30:34.673Z,6.60
2023-04-21T23:33:03.176Z,6.00
2023-04-21T23:35:31.549Z,6.70
2023-04-21T23:37:59.753Z,7.10
2023-04-21T23:40:28.018Z,6.90
2023-04-21T23:42:56.118Z,17.70
2023-04-21T23:45:24.319Z,15.10
2023-04-21T23:47:52.599Z,17.90
2023-04-21T23:50:20.788Z,21.30
2023-04-21T23:52:49.186Z,47.50
2023-04-21T23:55:18.587Z,34.80
2023-04-21T23:57:47.867Z,35.80
